createdAt,value
2018-11-03T03:24:52.154Z,101084.52
2018-11-03T03:25:30.334Z,101082.36
2018-11-03T03:26:09.268Z,101089.70
2018-11-03T03:26:47.316Z,101081.55
2018-11-03T03:27:25.313Z,101081.42
2018-11-03T03:28:03.330Z,101080.55
2018-11-03T03:28:41.304Z,101085.43
2018-11-03T03:29:19.440Z,101084.87
2018-11-03T03:29:57.576Z,101078.56
2018-11-03T03:30:35.633Z,101072.88
2018-11-03T03:31:13.608Z,101075.22
2018-11-03T03:31:51.502Z,101077.31
2018-11-03T03:32:29.535Z,101077.45
2018-11-03T03:33:07.349Z,101074.34
2018-11-03T03:33:45.252Z,101075.95
2018-11-03T03:34:23.345Z,101074.59
2018-11-03T03:35:01.437Z,101072.36
2018-11-03T03:35:39.517Z,101075.77
2018-11-03T03:36:17.586Z,101077.78
2018-11-03T03:36:55.556Z,101079.66
2018-11-03T03:37:33.583Z,101082.00
2018-11-03T03:38:11.589Z,101073.12
2018-11-03T03:38:49.701Z,101076.09
2018-11-03T03:39:27.498Z,101073.45
2018-11-03T03:40:05.457Z,101072.57
2018-11-03T03:40:43.417Z,101075.78
2018-11-03T03:41:21.614Z,101071.84
2018-11-03T03:41:59.561Z,101069.46
2018-11-03T03:42:37.478Z,101068.59
2018-11-03T03:43:15.360Z,101074.44
2018-11-03T03:43:53.332Z,101070.41
2018-11-03T03:44:31.180Z,101060.00
2018-11-03T03:45:10.290Z,101059.37
2018-11-03T03:45:48.317Z,101059.92
2018-11-03T03:46:26.261Z,101058.33
2018-11-03T03:47:05.429Z,101054.73
2018-11-03T03:47:44.217Z,101057.77
2018-11-03T03:48:22.314Z,101057.64
2018-11-03T03:49:00.457Z,101061.41
2018-11-03T03:49:38.303Z,101055.84
2018-11-03T03:50:16.367Z,101054.16
2018-11-03T03:50:54.243Z,101057.61
2018-11-03T03:51:33.264Z,101056.73
2018-11-03T03:52:12.400Z,101058.48
2018-11-03T03:52:50.289Z,101054.33
2018-11-03T03:53:28.435Z,101057.69
2018-11-03T03:54:06.620Z,101056.48
2018-11-03T03:54:44.561Z,101054.92
2018-11-03T03:55:23.774Z,101053.95
2018-11-03T03:56:01.671Z,101051.47
2018-11-03T03:56:39.720Z,101055.31
2018-11-03T03:57:17.648Z,101054.19
2018-11-03T03:57:55.630Z,101050.34
2018-11-03T03:58:33.477Z,101049.70
2018-11-03T03:59:11.454Z,101045.24
2018-11-03T03:59:49.569Z,101046.42
2018-11-03T04:00:27.442Z,101048.58
2018-11-03T04:01:05.489Z,101047.78
2018-11-03T04:01:43.535Z,101045.86
2018-11-03T04:02:21.502Z,101046.18
2018-11-03T04:02:59.542Z,101046.36
2018-11-03T04:03:37.441Z,101048.10
2018-11-03T04:04:15.547Z,101046.02
2018-11-03T04:04:54.076Z,101042.50
2018-11-03T04:05:32.129Z,101042.74
2018-11-03T04:06:10.144Z,101045.39
2018-11-03T04:06:48.129Z,101038.88
2018-11-03T04:07:26.100Z,101041.67
2018-11-03T04:08:03.956Z,101045.84
2018-11-03T04:08:41.870Z,101042.64
2018-11-03T04:09:19.892Z,101040.72
2018-11-03T04:09:57.861Z,101045.84
2018-11-03T04:10:35.800Z,101042.56
2018-11-03T04:11:13.677Z,101050.80
2018-11-03T04:11:51.658Z,101034.95
2018-11-03T04:12:30.731Z,101034.47
2018-11-03T04:13:09.019Z,101039.52
2018-11-03T04:13:47.048Z,101037.23
2018-11-03T04:14:25.166Z,101039.52
2018-11-03T04:15:03.016Z,101031.91
2018-11-03T04:15:40.973Z,101033.67
2018-11-03T04:16:19.049Z,101032.23
2018-11-03T04:16:57.035Z,101029.87
2018-11-03T04:17:35.095Z,101030.02
2018-11-03T04:18:12.976Z,101024.56
2018-11-03T04:18:50.790Z,101023.52
2018-11-03T04:19:28.694Z,101018.72
2018-11-03T04:20:06.731Z,101019.56
2018-11-03T04:20:44.668Z,101014.20
2018-11-03T04:21:27.232Z,101014.52
2018-11-03T04:22:05.214Z,101022.02
2018-11-03T04:22:43.683Z,101015.53
2018-11-03T04:23:21.711Z,101009.97
2018-11-03T04:24:00.080Z,101016.52
2018-11-03T04:24:38.623Z,101012.27
2018-11-03T04:25:16.546Z,101010.95
2018-11-03T04:25:54.408Z,101013.08
2018-11-03T04:26:32.973Z,101013.75
2018-11-03T04:27:11.016Z,101008.06
2018-11-03T04:27:49.845Z,101011.97
2018-11-03T04:28:28.363Z,101007.97
2018-11-03T04:29:06.217Z,101007.23
2018-11-03T04:29:44.331Z,101008.42
2018-11-03T04:30:22.414Z,101004.66
2018-11-03T04:31:00.354Z,101002.30
2018-11-03T04:31:38.327Z,101003.48
2018-11-03T04:32:16.365Z,101004.11
2018-11-03T04:32:54.518Z,101004.11
2018-11-03T04:33:32.435Z,100996.27
2018-11-03T04:34:11.475Z,100995.71
2018-11-03T04:34:50.208Z,100995.81
2018-11-03T04:35:29.463Z,100995.15
2018-11-03T04:36:07.503Z,100989.42
2018-11-03T04:36:45.663Z,100990.16
2018-11-03T04:37:23.816Z,100981.37
2018-11-03T04:38:01.985Z,100990.64
2018-11-03T04:38:39.995Z,100983.28
2018-11-03T04:39:18.908Z,100982.17
2018-11-03T04:39:56.856Z,100980.70
2018-11-03T04:40:35.317Z,100973.41
2018-11-03T04:41:13.303Z,100975.19
2018-11-03T04:41:51.340Z,100976.34
2018-11-03T04:42:29.676Z,100977.08
2018-11-03T04:43:07.683Z,100976.11
2018-11-03T04:43:45.687Z,100968.23
2018-11-03T04:44:23.623Z,100970.72
2018-11-03T04:45:01.599Z,100970.55
2018-11-03T04:45:39.924Z,100970.06
2018-11-03T04:46:17.768Z,100968.47
2018-11-03T04:46:56.055Z,100964.95
2018-11-03T04:47:33.995Z,100963.63
2018-11-03T04:48:12.280Z,100958.89
2018-11-03T04:48:50.778Z,100957.85
2018-11-03T04:49:28.797Z,100956.88
2018-11-03T04:50:06.921Z,100959.60
2018-11-03T04:50:44.820Z,100961.34
2018-11-03T04:51:23.079Z,100956.55
2018-11-03T04:52:01.097Z,100959.82
2018-11-03T04:52:39.356Z,100962.09
2018-11-03T04:53:18.014Z,100956.97
2018-11-03T04:53:58.376Z,100956.17
2018-11-03T04:54:36.433Z,100953.42
2018-11-03T04:55:14.494Z,100948.93
2018-11-03T04:55:52.629Z,100947.92
2018-11-03T04:56:30.834Z,100950.13
2018-11-03T04:57:09.128Z,100947.86
2018-11-03T04:57:47.400Z,100947.30
2018-11-03T04:58:25.508Z,100945.70
2018-11-03T04:59:03.589Z,100943.30
2018-11-03T04:59:41.543Z,100940.89
2018-11-03T05:00:19.519Z,100939.30
2018-11-03T05:00:58.766Z,100937.94
2018-11-03T05:01:36.728Z,100936.33
2018-11-03T05:02:15.195Z,100938.56
2018-11-03T05:02:53.232Z,100938.56
2018-11-03T05:03:32.316Z,100937.45
2018-11-03T05:04:10.572Z,100929.30
2018-11-03T05:04:48.691Z,100930.41
2018-11-03T05:05:26.745Z,100931.08
2018-11-03T05:06:04.913Z,100926.13
2018-11-03T05:06:43.141Z,100930.14
2018-11-03T05:07:21.258Z,100921.98
2018-11-03T05:07:59.417Z,100924.39
2018-11-03T05:08:37.276Z,100924.95
2018-11-03T05:09:15.184Z,100921.74
2018-11-03T05:09:53.179Z,100915.83
2018-11-03T05:10:31.699Z,100919.16
2018-11-03T05:11:10.030Z,100917.95
2018-11-03T05:11:48.261Z,100915.23
2018-11-03T05:12:26.577Z,100916.10
2018-11-03T05:13:04.822Z,100913.62
2018-11-03T05:13:42.791Z,100915.86
2018-11-03T05:14:20.886Z,100912.59
2018-11-03T05:14:58.908Z,100906.11
2018-11-03T05:15:36.876Z,100909.42
2018-11-03T05:16:14.950Z,100908.20
2018-11-03T05:16:53.142Z,100910.98
2018-11-03T05:17:31.088Z,100903.78
2018-11-03T05:18:09.247Z,100909.52
2018-11-03T05:18:47.185Z,100902.80
2018-11-03T05:19:25.412Z,100903.17
2018-11-03T05:20:03.375Z,100897.09
2018-11-03T05:20:42.297Z,100896.97
2018-11-03T05:21:20.258Z,100896.55
2018-11-03T05:21:58.419Z,100899.67
2018-11-03T05:22:36.736Z,100891.10
2018-11-03T05:23:14.602Z,100890.12
2018-11-03T05:23:52.609Z,100886.98
2018-11-03T05:24:30.708Z,100883.59
2018-11-03T05:25:08.688Z,100883.90
2018-11-03T05:25:46.817Z,100885.59
2018-11-03T05:26:25.002Z,100888.92
2018-11-03T05:27:03.441Z,100885.47
2018-11-03T05:27:41.880Z,100880.39
2018-11-03T05:28:19.769Z,100883.72
2018-11-03T05:28:57.916Z,100880.02
2018-11-03T05:29:35.827Z,100877.89
2018-11-03T05:30:14.686Z,100879.37
2018-11-03T05:30:52.672Z,100873.45
2018-11-03T05:31:30.765Z,100874.62
2018-11-03T05:32:09.113Z,100878.44
2018-11-03T05:32:47.300Z,100876.03
2018-11-03T05:33:25.670Z,100876.15
2018-11-03T05:34:03.709Z,100870.81
2018-11-03T05:34:41.934Z,100870.38
2018-11-03T05:35:19.847Z,100873.14
2018-11-03T05:35:57.833Z,100868.58
2018-11-03T05:36:35.735Z,100865.13
2018-11-03T05:37:13.643Z,100872.70
2018-11-03T05:37:51.754Z,100865.73
2018-11-03T05:38:29.678Z,100863.36
2018-11-03T05:39:12.946Z,100860.98
2018-11-03T05:39:50.909Z,100861.89
2018-11-03T05:40:28.912Z,100862.25
2018-11-03T05:41:07.586Z,100859.34
2018-11-03T05:41:45.893Z,100853.98
2018-11-03T05:42:25.645Z,100859.70
2018-11-03T05:43:03.505Z,100853.54
2018-11-03T05:43:42.224Z,100849.80
2018-11-03T05:44:20.274Z,100849.30
2018-11-03T05:44:58.427Z,100853.67
2018-11-03T05:45:36.579Z,100853.17
2018-11-03T05:46:14.814Z,100850.22
2018-11-03T05:46:52.744Z,100843.50
2018-11-03T05:47:30.699Z,100844.35
2018-11-03T05:48:08.660Z,100846.56
2018-11-03T05:48:46.685Z,100844.70
2018-11-03T05:49:24.693Z,100849.38
2018-11-03T05:50:02.756Z,100846.41
2018-11-03T05:50:40.853Z,100846.16
2018-11-03T05:51:18.808Z,100847.23
2018-11-03T05:51:56.771Z,100848.34
2018-11-03T05:52:34.835Z,100845.13
2018-11-03T05:53:12.896Z,100845.69
2018-11-03T05:53:50.888Z,100841.64
2018-11-03T05:54:28.997Z,100838.94
2018-11-03T05:55:07.125Z,100832.27
2018-11-03T05:55:45.187Z,100837.89
2018-11-03T05:56:23.216Z,100835.42
2018-11-03T05:57:01.149Z,100838.44
2018-11-03T05:57:39.137Z,100834.38
2018-11-03T05:58:17.141Z,100834.13
2018-11-03T05:58:55.357Z,100832.27
2018-11-03T05:59:33.922Z,100831.22
2018-11-03T06:00:12.914Z,100833.37
2018-11-03T06:00:50.896Z,100826.61
2018-11-03T06:01:28.970Z,100830.12
2018-11-03T06:02:07.836Z,100833.37
2018-11-03T06:02:46.043Z,100819.94
2018-11-03T06:03:24.103Z,100828.77
2018-11-03T06:04:02.109Z,100830.67
2018-11-03T06:04:40.241Z,100823.91
2018-11-03T06:05:20.749Z,100833.58
2018-11-03T06:05:58.794Z,100826.05
2018-11-03T06:06:36.821Z,100825.75
2018-11-03T06:07:14.698Z,100829.21
2018-11-03T06:07:52.590Z,100826.25
2018-11-03T06:08:30.536Z,100818.13
2018-11-03T06:09:10.554Z,100821.14
2018-11-03T06:09:49.624Z,100814.17
2018-11-03T06:10:27.542Z,100816.23
2018-11-03T06:11:05.590Z,100817.83
2018-11-03T06:11:43.537Z,100809.46
2018-11-03T06:12:21.502Z,100810.31
2018-11-03T06:13:00.490Z,100815.67
2018-11-03T06:13:38.611Z,100812.97
2018-11-03T06:14:16.609Z,100810.79
2018-11-03T06:14:55.690Z,100811.04
2018-11-03T06:15:33.819Z,100807.23
2018-11-03T06:16:11.956Z,100805.83
2018-11-03T06:16:49.819Z,100807.42
2018-11-03T06:17:27.688Z,100805.50
2018-11-03T06:18:05.738Z,100800.39
2018-11-03T06:18:43.913Z,100797.07
2018-11-03T06:19:21.858Z,100798.92
2018-11-03T06:19:59.930Z,100802.13
2018-11-03T06:20:37.926Z,100796.16
2018-11-03T06:21:15.964Z,100801.83
2018-11-03T06:21:53.860Z,100803.98
2018-11-03T06:22:31.912Z,100795.61
2018-11-03T06:23:10.401Z,100801.27
2018-11-03T06:23:48.508Z,100796.41
2018-11-03T06:24:26.844Z,100798.27
2018-11-03T06:25:04.924Z,100797.95
2018-11-03T06:25:42.962Z,100795.25
2018-11-03T06:26:21.216Z,100795.50
2018-11-03T06:26:59.145Z,100800.06
2018-11-03T06:27:38.393Z,100798.70
2018-11-03T06:28:16.299Z,100799.50
2018-11-03T06:28:54.813Z,100790.58
2018-11-03T06:29:32.741Z,100790.58
2018-11-03T06:30:12.851Z,100786.88
2018-11-03T06:30:51.221Z,100788.98
2018-11-03T06:31:29.618Z,100798.45
2018-11-03T06:32:07.772Z,100797.41
2018-11-03T06:32:45.620Z,100798.81
2018-11-03T06:33:23.545Z,100789.89
2018-11-03T06:34:02.321Z,100790.19
2018-11-03T06:34:40.325Z,100795.11
2018-11-03T06:35:18.264Z,100794.86
2018-11-03T06:35:56.207Z,100797.32
2018-11-03T06:36:34.312Z,100795.22
2018-11-03T06:37:12.234Z,100800.39
2018-11-03T06:37:50.201Z,100799.03
2018-11-03T06:38:28.106Z,100797.15
2018-11-03T06:39:06.979Z,100796.90
2018-11-03T06:39:45.133Z,100796.16
2018-11-03T06:40:23.318Z,100795.91
2018-11-03T06:41:01.172Z,100792.66
2018-11-03T06:41:40.406Z,100790.56
2018-11-03T06:42:18.653Z,100788.21
2018-11-03T06:42:56.701Z,100791.16
2018-11-03T06:43:34.701Z,100789.87
2018-11-03T06:44:12.624Z,100785.25
2018-11-03T06:44:50.994Z,100792.87
2018-11-03T06:45:28.883Z,100790.17
2018-11-03T06:46:06.816Z,100791.02
2018-11-03T06:46:44.881Z,100785.11
2018-11-03T06:47:22.819Z,100795.66
2018-11-03T06:48:01.092Z,100788.98
2018-11-03T06:48:39.141Z,100792.25
2018-11-03T06:49:22.859Z,100794.50
2018-11-03T06:50:00.968Z,100793.75
2018-11-03T06:50:40.189Z,100784.12
2018-11-03T06:51:18.185Z,100779.02
2018-11-03T06:51:56.314Z,100785.55
2018-11-03T06:52:34.295Z,100785.65
2018-11-03T06:53:12.506Z,100788.10
2018-11-03T06:53:50.680Z,100781.69
2018-11-03T06:54:28.668Z,100783.59
2018-11-03T06:55:06.652Z,100780.08
2018-11-03T06:55:45.689Z,100780.13
2018-11-03T06:56:23.610Z,100782.03
2018-11-03T06:57:01.592Z,100773.70
2018-11-03T06:57:39.656Z,100783.95
2018-11-03T06:58:18.113Z,100776.94
2018-11-03T06:58:56.037Z,100774.53
2018-11-03T06:59:34.329Z,100777.51
2018-11-03T07:00:13.037Z,100778.31
2018-11-03T07:00:52.530Z,100777.85
2018-11-03T07:01:30.582Z,100779.45
2018-11-03T07:02:08.668Z,100771.44
2018-11-03T07:02:46.711Z,100777.34
2018-11-03T07:03:24.790Z,100773.89
2018-11-03T07:04:02.718Z,100777.19
2018-11-03T07:04:40.667Z,100772.08
2018-11-03T07:05:18.703Z,100768.37
2018-11-03T07:05:56.710Z,100766.47
2018-11-03T07:06:34.569Z,100769.42
2018-11-03T07:07:12.621Z,100770.23
2018-11-03T07:07:50.603Z,100764.86
2018-11-03T07:08:28.502Z,100767.81
2018-11-03T07:09:07.450Z,100767.81
2018-11-03T07:09:45.528Z,100768.37
2018-11-03T07:10:23.658Z,100764.31
2018-11-03T07:11:01.721Z,100766.47
2018-11-03T07:11:40.281Z,100761.66
2018-11-03T07:12:18.221Z,100767.31
2018-11-03T07:12:56.413Z,100766.22
2018-11-03T07:13:34.584Z,100762.16
2018-11-03T07:14:12.996Z,100765.16
2018-11-03T07:14:51.060Z,100766.52
2018-11-03T07:15:29.069Z,100762.45
2018-11-03T07:16:06.944Z,100753.09
2018-11-03T07:16:44.989Z,100761.16
2018-11-03T07:17:23.101Z,100756.05
2018-11-03T07:18:00.980Z,100757.16
2018-11-03T07:18:39.086Z,100759.61
2018-11-03T07:19:17.056Z,100759.86
2018-11-03T07:19:55.029Z,100757.50
2018-11-03T07:20:33.197Z,100757.80
2018-11-03T07:21:11.219Z,100747.11
2018-11-03T07:21:49.434Z,100753.28
2018-11-03T07:22:27.617Z,100752.27
2018-11-03T07:23:05.556Z,100753.62
2018-11-03T07:23:43.521Z,100754.47
2018-11-03T07:24:21.521Z,100748.27
2018-11-03T07:24:59.451Z,100761.73
2018-11-03T07:25:37.413Z,100757.44
2018-11-03T07:26:15.400Z,100753.92
2018-11-03T07:26:53.463Z,100755.28
2018-11-03T07:27:31.368Z,100753.67
2018-11-03T07:28:09.500Z,100764.48
2018-11-03T07:28:47.537Z,100753.92
2018-11-03T07:29:25.566Z,100749.63
2018-11-03T07:30:04.597Z,100760.13
2018-11-03T07:30:42.613Z,100753.92
2018-11-03T07:31:20.481Z,100757.17
2018-11-03T07:31:58.414Z,100758.77
2018-11-03T07:32:36.292Z,100760.38
2018-11-03T07:33:14.315Z,100757.67
2018-11-03T07:33:52.312Z,100755.22
2018-11-03T07:34:30.404Z,100751.48
2018-11-03T07:35:08.562Z,100754.38
2018-11-03T07:35:46.863Z,100755.98
2018-11-03T07:36:25.097Z,100756.23
2018-11-03T07:37:04.038Z,100752.18
2018-11-03T07:37:42.237Z,100749.22
2018-11-03T07:38:21.136Z,100752.73
2018-11-03T07:39:00.110Z,100749.48
2018-11-03T07:39:38.090Z,100743.36
2018-11-03T07:40:16.119Z,100750.58
2018-11-03T07:40:54.224Z,100751.92
2018-11-03T07:41:32.452Z,100747.02
2018-11-03T07:42:12.669Z,100747.28
2018-11-03T07:42:50.814Z,100752.94
2018-11-03T07:43:28.890Z,100737.91
2018-11-03T07:44:07.381Z,100744.58
2018-11-03T07:44:45.402Z,100736.81
2018-11-03T07:45:24.181Z,100744.07
2018-11-03T07:46:02.277Z,100730.94
2018-11-03T07:46:40.416Z,100734.95
2018-11-03T07:47:18.391Z,100742.47
2018-11-03T07:47:56.514Z,100726.34
2018-11-03T07:48:34.908Z,100727.59
2018-11-03T07:49:17.547Z,100731.66
2018-11-03T07:49:55.511Z,100723.55
2018-11-03T07:50:33.518Z,100725.15
2018-11-03T07:51:12.274Z,100724.85
2018-11-03T07:51:51.022Z,100722.70
2018-11-03T07:52:28.985Z,100718.09
2018-11-03T07:53:06.947Z,100717.55
2018-11-03T07:53:45.007Z,100710.78
2018-11-03T07:54:23.001Z,100709.69
2018-11-03T07:55:01.193Z,100715.09
2018-11-03T07:55:39.197Z,100708.33
2018-11-03T07:56:17.217Z,100695.81
2018-11-03T07:56:56.339Z,100711.04
2018-11-03T07:57:34.307Z,100712.39
2018-11-03T07:58:12.371Z,100699.52
2018-11-03T07:58:50.267Z,100705.37
2018-11-03T07:59:28.352Z,100701.63
2018-11-03T08:00:06.261Z,100703.31
2018-11-03T08:00:45.609Z,100704.87
2018-11-03T08:01:23.763Z,100707.33
2018-11-03T08:02:01.832Z,100696.86
2018-11-03T08:02:39.805Z,100706.53
2018-11-03T08:03:17.861Z,100704.87
2018-11-03T08:03:55.810Z,100693.67
2018-11-03T08:04:33.854Z,100704.63
2018-11-03T08:05:13.482Z,100705.47
2018-11-03T08:05:51.613Z,100703.11
2018-11-03T08:06:29.630Z,100699.31
2018-11-03T08:07:07.663Z,100701.16
2018-11-03T08:07:46.504Z,100700.62
2018-11-03T08:08:24.692Z,100701.16
2018-11-03T08:09:02.728Z,100699.81
2018-11-03T08:09:41.062Z,100702.77
2018-11-03T08:10:19.014Z,100701.16
2018-11-03T08:10:56.950Z,100699.81
2018-11-03T08:11:34.994Z,100700.36
2018-11-03T08:12:13.526Z,100693.12
2018-11-03T08:12:51.648Z,100698.21
2018-11-03T08:13:29.697Z,100699.31
2018-11-03T08:14:07.598Z,100699.06
2018-11-03T08:14:45.592Z,100694.17
2018-11-03T08:15:23.658Z,100698.23
2018-11-03T08:16:01.594Z,100691.22
2018-11-03T08:16:39.577Z,100699.08
2018-11-03T08:17:17.663Z,100689.36
2018-11-03T08:17:56.166Z,100697.17
2018-11-03T08:18:34.454Z,100690.97
2018-11-03T08:19:12.510Z,100694.47
2018-11-03T08:19:50.425Z,100692.30
2018-11-03T08:20:28.388Z,100690.67
2018-11-03T08:21:06.523Z,100681.55
2018-11-03T08:21:44.457Z,100694.22
2018-11-03T08:22:22.529Z,100691.52
2018-11-03T08:23:00.640Z,100688.81
2018-11-03T08:23:38.795Z,100688.56
2018-11-03T08:24:16.632Z,100684.76
2018-11-03T08:24:54.528Z,100681.55
2018-11-03T08:25:32.472Z,100680.95
2018-11-03T08:26:10.453Z,100683.91
2018-11-03T08:26:48.482Z,100676.15
2018-11-03T08:27:26.391Z,100681.76
2018-11-03T08:28:04.229Z,100685.02
2018-11-03T08:28:42.336Z,100677.95
2018-11-03T08:29:20.434Z,100680.95
2018-11-03T08:29:58.441Z,100679.86
2018-11-03T08:30:36.364Z,100675.55
2018-11-03T08:31:14.743Z,100680.39
2018-11-03T08:31:52.928Z,100676.89
2018-11-03T08:32:30.893Z,100674.44
2018-11-03T08:33:08.857Z,100672.53
2018-11-03T08:33:46.824Z,100672.23
2018-11-03T08:34:24.725Z,100672.78
2018-11-03T08:35:02.607Z,100673.03
2018-11-03T08:35:41.488Z,100672.48
2018-11-03T08:36:20.505Z,100674.59
2018-11-03T08:36:58.417Z,100675.95
2018-11-03T08:37:36.373Z,100672.99
2018-11-03T08:38:14.748Z,100667.37
2018-11-03T08:38:53.140Z,100672.69
2018-11-03T08:39:32.484Z,100671.09
2018-11-03T08:40:13.653Z,100674.05
2018-11-03T08:40:51.939Z,100664.63
2018-11-03T08:41:29.855Z,100665.23
2018-11-03T08:42:08.143Z,100663.08
2018-11-03T08:42:46.080Z,100663.08
2018-11-03T08:43:24.247Z,100670.63
2018-11-03T08:44:02.290Z,100667.13
2018-11-03T08:44:40.258Z,100664.68
2018-11-03T08:45:18.159Z,100665.28
2018-11-03T08:45:56.321Z,100664.42
2018-11-03T08:46:34.406Z,100660.37
2018-11-03T08:47:12.554Z,100659.57
2018-11-03T08:47:50.573Z,100654.72
2018-11-03T08:48:28.854Z,100657.97
2018-11-03T08:49:06.924Z,100667.13
2018-11-03T08:49:44.947Z,100657.67
2018-11-03T08:50:22.816Z,100662.53
2018-11-03T08:51:01.923Z,100660.08
2018-11-03T08:51:39.971Z,100661.67
2018-11-03T08:52:18.265Z,100656.52
2018-11-03T08:52:56.065Z,100652.77
2018-11-03T08:53:34.027Z,100655.72
2018-11-03T08:54:11.952Z,100656.56
2018-11-03T08:54:49.988Z,100657.17
2018-11-03T08:55:28.141Z,100654.97
2018-11-03T08:56:06.097Z,100654.67
2018-11-03T08:56:44.065Z,100649.56
2018-11-03T08:57:22.034Z,100646.61
2018-11-03T08:57:59.994Z,100645.83
2018-11-03T08:58:37.875Z,100652.27
2018-11-03T08:59:16.010Z,100648.21
2018-11-03T08:59:54.147Z,100642.02
2018-11-03T09:00:33.008Z,100649.56
2018-11-03T09:01:10.919Z,100644.95
2018-11-03T09:01:48.983Z,100650.66
2018-11-03T09:02:27.042Z,100645.51
2018-11-03T09:03:05.032Z,100649.56
2018-11-03T09:03:42.877Z,100643.67
2018-11-03T09:04:20.876Z,100650.11
2018-11-03T09:04:58.868Z,100642.02
2018-11-03T09:05:37.521Z,100643.05
2018-11-03T09:06:15.457Z,100651.91
2018-11-03T09:06:53.419Z,100645.51
2018-11-03T09:07:31.303Z,100646.52
2018-11-03T09:08:09.320Z,100638.75
2018-11-03T09:08:47.375Z,100645.66
2018-11-03T09:09:25.364Z,100647.27
2018-11-03T09:10:03.390Z,100651.57
2018-11-03T09:10:42.204Z,100651.02
2018-11-03T09:11:20.202Z,100654.52
2018-11-03T09:11:58.070Z,100653.17
2018-11-03T09:12:36.879Z,100649.62
2018-11-03T09:13:15.020Z,100649.87
2018-11-03T09:13:52.985Z,100650.72
2018-11-03T09:14:31.133Z,100648.27
2018-11-03T09:15:11.022Z,100646.11
2018-11-03T09:15:49.929Z,100646.92
2018-11-03T09:16:27.966Z,100648.77
2018-11-03T09:17:05.934Z,100648.52
2018-11-03T09:17:44.843Z,100648.77
2018-11-03T09:18:22.851Z,100649.57
2018-11-03T09:19:02.526Z,100645.56
2018-11-03T09:19:40.580Z,100647.97
2018-11-03T09:20:18.539Z,100650.67
2018-11-03T09:20:56.528Z,100645.06
2018-11-03T09:21:34.574Z,100642.36
2018-11-03T09:22:12.567Z,100654.17
2018-11-03T09:22:50.605Z,100649.57
2018-11-03T09:23:28.572Z,100647.67
2018-11-03T09:24:06.785Z,100646.87
2018-11-03T09:24:44.700Z,100647.67
2018-11-03T09:25:22.789Z,100646.56
2018-11-03T09:26:00.856Z,100642.52
2018-11-03T09:26:38.837Z,100646.56
2018-11-03T09:27:16.793Z,100643.31
2018-11-03T09:27:54.669Z,100647.62
2018-11-03T09:28:32.748Z,100648.17
2018-11-03T09:29:11.482Z,100651.67
2018-11-03T09:29:49.460Z,100644.46
2018-11-03T09:30:27.465Z,100650.63
2018-11-03T09:31:05.444Z,100651.97
2018-11-03T09:31:43.573Z,100649.27
2018-11-03T09:32:21.594Z,100653.02
2018-11-03T09:32:59.730Z,100650.37
2018-11-03T09:33:37.715Z,100651.72
2018-11-03T09:34:15.720Z,100650.72
2018-11-03T09:34:54.111Z,100647.97
2018-11-03T09:35:32.131Z,100644.06
2018-11-03T09:36:10.538Z,100651.02
2018-11-03T09:36:48.384Z,100653.47
2018-11-03T09:37:26.428Z,100650.06
2018-11-03T09:38:04.526Z,100650.06
2018-11-03T09:38:42.463Z,100652.52
2018-11-03T09:39:20.437Z,100652.52
2018-11-03T09:39:58.480Z,100659.02
2018-11-03T09:40:36.397Z,100650.66
2018-11-03T09:41:14.352Z,100650.13
2018-11-03T09:41:52.368Z,100655.53
2018-11-03T09:42:30.520Z,100656.63
2018-11-03T09:43:09.197Z,100655.53
2018-11-03T09:43:47.275Z,100659.04
2018-11-03T09:44:25.539Z,100657.73
2018-11-03T09:45:03.654Z,100656.89
2018-11-03T09:45:41.730Z,100658.23
2018-11-03T09:46:19.814Z,100662.59
2018-11-03T09:46:57.699Z,100654.53
2018-11-03T09:47:35.663Z,100660.44
2018-11-03T09:48:14.766Z,100661.53
2018-11-03T09:48:52.755Z,100660.44
2018-11-03T09:49:30.828Z,100657.80
2018-11-03T09:50:09.216Z,100662.64
2018-11-03T09:50:47.278Z,100663.44
2018-11-03T09:51:25.336Z,100662.64
2018-11-03T09:52:03.323Z,100658.64
2018-11-03T09:52:41.743Z,100661.83
2018-11-03T09:53:19.740Z,100661.05
2018-11-03T09:53:57.649Z,100671.84
2018-11-03T09:54:35.660Z,100660.50
2018-11-03T09:55:17.111Z,100665.95
2018-11-03T09:55:54.971Z,100654.43
2018-11-03T09:56:32.917Z,100664.64
2018-11-03T09:57:12.093Z,100662.19
2018-11-03T09:57:50.213Z,100665.15
2018-11-03T09:58:28.230Z,100671.65
2018-11-03T09:59:06.231Z,100671.65
2018-11-03T09:59:44.253Z,100663.30
2018-11-03T10:00:23.326Z,100661.44
2018-11-03T10:01:01.342Z,100661.14
2018-11-03T10:01:39.299Z,100665.74
2018-11-03T10:02:17.454Z,100671.40
2018-11-03T10:02:55.438Z,100664.39
2018-11-03T10:03:33.682Z,100664.14
2018-11-03T10:04:11.662Z,100672.50
2018-11-03T10:04:49.676Z,100668.74
2018-11-03T10:05:27.805Z,100667.14
2018-11-03T10:06:05.802Z,100666.09
2018-11-03T10:06:43.916Z,100668.79
2018-11-03T10:07:22.020Z,100666.42
2018-11-03T10:08:02.220Z,100663.19
2018-11-03T10:08:40.279Z,100669.14
2018-11-03T10:09:18.072Z,100671.55
2018-11-03T10:09:56.161Z,100673.74
2018-11-03T10:10:34.069Z,100670.79
2018-11-03T10:11:11.996Z,100672.14
2018-11-03T10:11:50.008Z,100670.54
2018-11-03T10:12:28.981Z,100670.03
2018-11-03T10:13:07.141Z,100664.42
2018-11-03T10:13:44.998Z,100676.83
2018-11-03T10:14:23.182Z,100677.37
2018-11-03T10:15:01.071Z,100668.72
2018-11-03T10:15:39.188Z,100678.22
2018-11-03T10:16:17.037Z,100675.52
2018-11-03T10:16:55.202Z,100676.88
2018-11-03T10:17:33.234Z,100670.20
2018-11-03T10:18:11.269Z,100679.31
2018-11-03T10:18:49.275Z,100676.62
2018-11-03T10:19:27.420Z,100680.67
2018-11-03T10:20:05.408Z,100680.42
2018-11-03T10:20:45.325Z,100681.01
2018-11-03T10:21:23.199Z,100680.45
2018-11-03T10:22:01.129Z,100681.59
2018-11-03T10:22:39.376Z,100679.20
2018-11-03T10:23:18.536Z,100683.80
2018-11-03T10:23:56.553Z,100684.86
2018-11-03T10:24:34.686Z,100683.25
2018-11-03T10:25:16.747Z,100684.60
2018-11-03T10:25:54.715Z,100685.95
2018-11-03T10:26:32.712Z,100683.80
2018-11-03T10:27:10.751Z,100685.16
2018-11-03T10:27:49.371Z,100689.75
2018-11-03T10:28:27.279Z,100682.75
2018-11-03T10:29:05.201Z,100692.45
2018-11-03T10:29:43.175Z,100695.45
2018-11-03T10:30:21.296Z,100694.09
2018-11-03T10:30:59.989Z,100694.09
2018-11-03T10:31:38.468Z,100694.14
2018-11-03T10:32:16.425Z,100697.60
2018-11-03T10:32:54.508Z,100696.80
2018-11-03T10:33:32.709Z,100697.05
2018-11-03T10:34:11.648Z,100692.28
2018-11-03T10:34:49.642Z,100698.70
2018-11-03T10:35:27.705Z,100698.45
2018-11-03T10:36:05.698Z,100692.03
2018-11-03T10:36:43.737Z,100698.45
2018-11-03T10:37:21.702Z,100706.55
2018-11-03T10:38:00.592Z,100710.84
2018-11-03T10:38:38.548Z,100709.50
2018-11-03T10:39:16.693Z,100704.35
2018-11-03T10:39:54.523Z,100712.45
2018-11-03T10:40:32.769Z,100713.55